This is the latest recevied weather packets stored in our database for station/object GJ7DNI-13. If no packets are shown the sender has not sent any weather packets the latest 10 day(s).
| Time | Temp. | Humidity | Pressure | Rain* | Wind** | Luminosity | Snow |
|---|---|---|---|---|---|---|---|
| 1777310115 | 19.44° C | 43% | 1019.9 hPa | 0 mm | - | 267 W/m² | - |
| 1777309815 | 20° C | 44% | 1019.9 hPa | 0 mm | - | 285 W/m² | - |
| 1777309515 | 19.44° C | 44% | 1019.9 hPa | 0 mm | - | 301 W/m² | - |
| 1777309215 | 19.44° C | 46% | 1019.9 hPa | 0 mm | - | 316 W/m² | - |
| 1777308915 | 18.89° C | 47% | 1020 hPa | 0 mm | - | 330 W/m² | - |
| 1777308615 | 18.89° C | 48% | 1020.1 hPa | 0 mm | - | 343 W/m² | - |
| 1777308315 | 18.89° C | 47% | 1020.1 hPa | 0 mm | - | 360 W/m² | - |
| 1777308015 | 19.44° C | 46% | 1020.1 hPa | 0 mm | - | 376 W/m² | - |
| 1777307894 | 18.33° C | 55% | 1020.2 hPa | 0 mm | - | 468 W/m² | - |
| 1777307715 | 18.89° C | 46% | 1020.1 hPa | 0 mm | - | 396 W/m² | - |
| 1777307415 | 19.44° C | 46% | 1020.1 hPa | 0 mm | - | 415 W/m² | - |
| 1777307115 | 19.44° C | 47% | 1020.1 hPa | 0 mm | - | 438 W/m² | - |
| 1777306815 | 18.89° C | 51% | 1020.1 hPa | 0 mm | - | 468 W/m² | - |
| 1777306515 | 18.33° C | 53% | 1020.1 hPa | 0 mm | - | 494 W/m² | - |
| 1777306215 | 18.33° C | 52% | 1020.2 hPa | 0 mm | - | 461 W/m² | - |
| 1777305915 | 18.33° C | 53% | 1020.2 hPa | 0 mm | - | 450 W/m² | - |
| 1777305615 | 18.33° C | 55% | 1020.2 hPa | 0 mm | - | 371 W/m² | - |
| 1777305315 | 18.33° C | 55% | 1020.2 hPa | 0 mm | - | 364 W/m² | - |
| 1777305015 | 18.33° C | 55% | 1020.2 hPa | 0 mm | - | 468 W/m² | - |
| 1777304715 | 18.89° C | 54% | 1020.2 hPa | 0 mm | - | 441 W/m² | - |
| 1777304415 | 19.44° C | 53% | 1020.1 hPa | 0 mm | - | 471 W/m² | - |
| 1777304115 | 19.44° C | 52% | 1020 hPa | 0 mm | - | 457 W/m² | - |
| 1777303876 | 22.22° C | 45% | 1020.6 hPa | 0 mm | - | 708 W/m² | - |
| 1777303815 | 18.89° C | 53% | 1020.1 hPa | 0 mm | - | 469 W/m² | - |
| 1777303515 | 20° C | 52% | 1020.1 hPa | 0 mm | - | 476 W/m² | - |
* Rain latest hour (hover to see other rain measurements)
** Current wind speed in m/s (hover to see current wind gust speed)